Time;durP1;ratioP1;P1;durP2;ratioP2;P2;SDS_P1;SDS_P2;PMS_P1;PMS_P2;Temp;Humidity;BMP_temperature;BMP_pressure;BME280_temperature;BME280_humidity;BME280_pressure;Samples;Min_cycle;Max_cycle;Signal;HPM_P1;HPM_P2
2022/03/12 00:01:06;;;;;;;27.87;8.80;;;;;;;10.70;nan;101692.41;4899688;29;20449;-88
2022/03/12 00:03:35;;;;;;;20.33;7.90;;;;;;;10.68;nan;101705.38;4827577;29;20449;-90
2022/03/12 00:06:05;;;;;;;21.20;6.80;;;;;;;10.65;nan;101708.44;4827835;29;20456;-89
2022/03/12 00:08:44;;;;;;;23.93;7.07;;;;;;;10.60;nan;101700.75;4827539;29;20456;-89
2022/03/12 00:11:18;;;;;;;25.00;7.43;;;;;;;10.61;nan;101698.88;4842963;29;20444;-89
2022/03/12 00:13:47;;;;;;;25.73;6.00;;;;;;;10.59;nan;101703.66;4842281;29;20494;-90
2022/03/12 00:16:22;;;;;;;28.27;7.43;;;;;;;10.53;nan;101704.34;4813224;29;20463;-90
2022/03/12 00:18:58;;;;;;;30.70;7.60;;;;;;;10.50;nan;101708.28;4800887;29;20826;-88
2022/03/12 00:21:28;;;;;;;24.30;7.50;;;;;;;10.50;nan;101702.81;4863947;29;20447;-88
2022/03/12 00:24:00;;;;;;;26.00;8.80;;;;;;;10.46;nan;101701.44;4813464;29;20953;-90
2022/03/12 00:26:31;;;;;;;21.90;6.97;;;;;;;10.46;nan;101695.13;4840385;29;20459;-90
2022/03/12 00:28:59;;;;;;;34.67;7.23;;;;;;;10.43;nan;101690.00;4830425;29;20912;-88
2022/03/12 00:31:27;;;;;;;21.97;6.80;;;;;;;10.47;nan;101694.09;4846019;29;20821;-88
2022/03/12 00:33:57;;;;;;;34.17;8.60;;;;;;;10.51;nan;101685.41;4846197;29;20479;-90
2022/03/12 00:36:25;;;;;;;36.57;10.03;;;;;;;10.51;nan;101692.75;4830725;29;20451;-89
2022/03/12 00:38:53;;;;;;;25.90;8.03;;;;;;;10.57;nan;101703.00;4846082;29;20459;-90
2022/03/12 00:41:29;;;;;;;43.87;9.33;;;;;;;10.58;nan;101699.25;4837253;29;20458;-88
2022/03/12 00:44:17;;;;;;;39.50;9.20;;;;;;;10.48;nan;101696.66;4880608;29;20498;-90
2022/03/12 00:46:46;;;;;;;28.13;8.57;;;;;;;10.48;nan;101701.28;4850610;29;20816;-90
2022/03/12 00:49:15;;;;;;;24.67;7.77;;;;;;;10.38;nan;101709.66;4865544;29;20450;-88
2022/03/12 00:51:44;;;;;;;26.07;7.63;;;;;;;10.22;nan;101715.91;4882475;29;20956;-88
2022/03/12 00:54:13;;;;;;;32.60;7.30;;;;;;;10.10;nan;101719.97;4865271;29;20486;-88
2022/03/12 00:56:41;;;;;;;21.27;6.00;;;;;;;10.02;nan;101711.72;4881638;29;20521;-88
2022/03/12 00:59:09;;;;;;;22.53;5.60;;;;;;;9.94;nan;101700.81;4899914;29;20446;-88
2022/03/12 01:01:38;;;;;;;27.07;7.60;;;;;;;9.95;nan;101713.44;4883388;29;20445;-87
2022/03/12 01:04:06;;;;;;;21.60;5.73;;;;;;;9.98;nan;101705.78;4848164;29;20451;-89
2022/03/12 01:06:34;;;;;;;23.87;6.50;;;;;;;9.85;nan;101690.88;4878871;29;20455;-89
2022/03/12 01:09:03;;;;;;;17.83;6.20;;;;;;;9.90;nan;101693.97;4835398;29;20459;-89
2022/03/12 01:11:31;;;;;;;27.03;7.20;;;;;;;9.81;nan;101695.81;4860232;29;20460;-89
2022/03/12 01:14:02;;;;;;;33.90;7.80;;;;;;;9.81;nan;101684.91;4845222;29;20491;-89
2022/03/12 01:16:31;;;;;;;21.03;6.03;;;;;;;9.84;nan;101694.63;4810202;29;20461;-89
2022/03/12 01:18:59;;;;;;;23.30;6.10;;;;;;;9.80;nan;101693.25;4822345;29;20460;-91
2022/03/12 01:21:28;;;;;;;24.77;7.27;;;;;;;9.67;nan;101678.19;4760809;29;20932;-89
2022/03/12 01:23:57;;;;;;;24.87;6.70;;;;;;;9.59;nan;101670.00;4791021;29;20453;-89
2022/03/12 01:26:25;;;;;;;20.77;6.00;;;;;;;9.56;nan;101680.38;4804593;29;20458;-90
2022/03/12 01:28:58;;;;;;;22.97;7.23;;;;;;;9.60;nan;101682.63;4805473;29;20481;-90
2022/03/12 01:31:26;;;;;;;17.30;5.17;;;;;;;9.53;nan;101673.34;4789996;29;20468;-89
2022/03/12 01:33:53;;;;;;;16.73;5.60;;;;;;;9.39;nan;101668.53;4790672;29;20497;-89
2022/03/12 01:36:22;;;;;;;32.43;6.20;;;;;;;9.35;nan;101683.50;4790379;29;20469;-89
2022/03/12 01:38:55;;;;;;;26.57;6.70;;;;;;;9.29;nan;101695.91;4784800;29;20462;-90
2022/03/12 01:41:32;;;;;;;21.37;6.90;;;;;;;9.20;nan;101696.91;4860021;29;20825;-88
2022/03/12 01:44:05;;;;;;;22.00;5.57;;;;;;;9.27;nan;101691.63;4847964;29;20450;-89
2022/03/12 01:46:38;;;;;;;20.10;5.37;;;;;;;9.27;nan;101686.19;4861422;29;20457;-89
2022/03/12 01:49:30;;;;;;;31.03;6.27;;;;;;;9.33;nan;101708.22;4833628;29;20466;-89
2022/03/12 01:51:59;;;;;;;18.27;5.77;;;;;;;9.29;nan;101705.97;4841567;29;20463;-89
2022/03/12 01:54:29;;;;;;;27.80;6.20;;;;;;;9.26;nan;101695.38;4826351;29;20484;-89
2022/03/12 01:56:58;;;;;;;20.83;5.70;;;;;;;9.26;nan;101679.00;4836856;29;20455;-90
2022/03/12 01:59:30;;;;;;;20.77;5.80;;;;;;;9.38;nan;101687.78;4844761;29;20459;-90
2022/03/12 02:01:58;;;;;;;25.53;7.60;;;;;;;9.46;nan;101685.09;4857476;29;20454;-90
2022/03/12 02:04:29;;;;;;;30.50;6.53;;;;;;;9.57;nan;101688.41;4897345;29;20466;-90
2022/03/12 02:07:01;;;;;;;28.00;7.53;;;;;;;9.54;nan;101676.94;4882800;29;20463;-90
2022/03/12 02:09:32;;;;;;;29.33;7.47;;;;;;;9.57;nan;101668.44;4896751;29;20520;-89
2022/03/12 02:12:00;;;;;;;27.47;7.17;;;;;;;9.59;nan;101653.59;4877380;29;20458;-90
2022/03/12 02:14:31;;;;;;;25.83;6.57;;;;;;;9.68;nan;101662.66;4891110;29;20491;-89
2022/03/12 02:17:09;;;;;;;25.53;6.53;;;;;;;9.72;nan;101666.78;4882462;29;20460;-90
2022/03/12 02:19:40;;;;;;;24.03;6.47;;;;;;;9.65;nan;101663.00;4867626;29;20449;-90
2022/03/12 02:22:10;;;;;;;19.60;5.83;;;;;;;9.58;nan;101656.50;4854859;29;20513;-89
2022/03/12 02:24:39;;;;;;;28.43;6.37;;;;;;;9.50;nan;101660.03;4893793;29;20459;-89
2022/03/12 02:27:10;;;;;;;19.93;5.70;;;;;;;9.44;nan;101671.59;4896658;29;20679;-89
2022/03/12 02:29:43;;;;;;;41.63;7.30;;;;;;;9.41;nan;101666.50;4896676;29;20453;-89
2022/03/12 02:32:13;;;;;;;24.70;6.43;;;;;;;9.37;nan;101664.25;4882123;29;20458;-88
2022/03/12 02:34:48;;;;;;;20.07;6.03;;;;;;;9.35;nan;101675.31;4881744;29;20491;-89
2022/03/12 02:37:30;;;;;;;27.47;6.90;;;;;;;9.30;nan;101647.69;4872501;29;20464;-89
2022/03/12 02:40:03;;;;;;;23.43;6.00;;;;;;;9.38;nan;101661.38;4883078;29;20504;-90
2022/03/12 02:42:34;;;;;;;17.37;6.00;;;;;;;9.38;nan;101664.09;4851907;29;20450;-89
2022/03/12 02:45:07;;;;;;;25.20;6.57;;;;;;;9.39;nan;101656.75;4878566;29;20468;-90
2022/03/12 02:47:44;;;;;;;18.37;6.13;;;;;;;9.40;nan;101659.34;4878183;29;20454;-89
2022/03/12 02:50:14;;;;;;;25.27;6.03;;;;;;;9.41;nan;101661.03;4866824;29;20461;-89
2022/03/12 02:52:44;;;;;;;19.93;5.30;;;;;;;9.41;nan;101666.50;4869947;29;20451;-89
2022/03/12 02:55:17;;;;;;;22.40;6.03;;;;;;;9.34;nan;101658.09;4858783;29;20494;-89
2022/03/12 02:57:49;;;;;;;18.17;5.60;;;;;;;9.31;nan;101660.31;4862203;29;20445;-89
2022/03/12 03:00:22;;;;;;;16.77;5.23;;;;;;;9.23;nan;101663.84;4848372;29;20454;-89
2022/03/12 03:02:56;;;;;;;14.13;5.33;;;;;;;9.13;nan;101664.97;4843776;29;20489;-89
2022/03/12 03:05:41;;;;;;;13.90;5.03;;;;;;;9.04;nan;101657.78;4859248;29;20447;-90
2022/03/12 03:08:12;;;;;;;23.07;5.70;;;;;;;8.99;nan;101661.84;4867182;29;20454;-89
2022/03/12 03:10:41;;;;;;;20.20;5.40;;;;;;;8.99;nan;101667.28;4878803;29;20462;-89
2022/03/12 03:13:27;;;;;;;21.97;5.17;;;;;;;9.06;nan;101670.22;4889506;29;20466;-90
2022/03/12 03:16:03;;;;;;;11.90;4.10;;;;;;;9.11;nan;101667.00;4839737;29;20490;-90
2022/03/12 03:18:35;;;;;;;15.67;5.17;;;;;;;9.08;nan;101665.47;4840362;29;20463;-89
2022/03/12 03:21:03;;;;;;;14.43;4.87;;;;;;;9.14;nan;101666.69;4808386;29;20464;-90
2022/03/12 03:23:32;;;;;;;18.10;5.80;;;;;;;9.12;nan;101655.09;4825377;29;20452;-90
2022/03/12 03:26:00;;;;;;;20.00;5.60;;;;;;;9.16;nan;101651.88;4840791;29;20467;-89
2022/03/12 03:28:31;;;;;;;15.63;5.33;;;;;;;9.16;nan;101662.78;4813493;29;20472;-89
2022/03/12 03:31:03;;;;;;;14.27;5.00;;;;;;;9.04;nan;101641.41;4813450;29;20452;-89
2022/03/12 03:33:34;;;;;;;19.93;5.17;;;;;;;9.14;nan;101656.63;4845984;29;20456;-90
2022/03/12 03:36:05;;;;;;;19.43;6.63;;;;;;;9.14;nan;101653.06;4885720;29;20477;-89
2022/03/12 03:38:36;;;;;;;17.57;5.23;;;;;;;9.05;nan;101640.38;4885441;29;20456;-89
2022/03/12 03:41:07;;;;;;;18.53;4.90;;;;;;;9.08;nan;101642.78;4885040;29;20952;-89
2022/03/12 03:43:35;;;;;;;31.03;6.40;;;;;;;9.08;nan;101637.34;4882030;29;20457;-89
2022/03/12 03:46:04;;;;;;;34.53;6.60;;;;;;;9.10;nan;101625.25;4883677;29;20964;-89
2022/03/12 03:48:38;;;;;;;17.73;6.47;;;;;;;9.19;nan;101637.06;4900996;29;20445;-89
2022/03/12 03:51:09;;;;;;;19.00;6.50;;;;;;;9.15;nan;101622.03;4884939;29;20459;-90
2022/03/12 03:53:37;;;;;;;17.83;6.30;;;;;;;9.18;nan;101627.16;4899551;29;20456;-90
2022/03/12 03:56:07;;;;;;;12.87;5.00;;;;;;;9.13;nan;101624.06;4861334;29;20473;-89
2022/03/12 03:58:37;;;;;;;29.60;6.27;;;;;;;9.14;nan;101632.09;4884932;29;20456;-89
2022/03/12 04:01:12;;;;;;;19.20;4.57;;;;;;;9.09;nan;101623.53;4863979;29;20458;-89
2022/03/12 04:03:49;;;;;;;28.10;6.17;;;;;;;9.07;nan;101621.97;4895937;29;20454;-91
2022/03/12 04:06:21;;;;;;;16.50;5.20;;;;;;;8.98;nan;101621.97;4885011;29;20455;-91
2022/03/12 04:08:50;;;;;;;13.37;4.20;;;;;;;8.95;nan;101622.28;4885111;29;20438;-90
2022/03/12 04:11:21;;;;;;;15.33;4.57;;;;;;;8.93;nan;101635.22;4863113;29;20454;-88
2022/03/12 04:13:51;;;;;;;18.23;4.07;;;;;;;8.90;nan;101623.78;4898453;29;20843;-87
2022/03/12 04:16:20;;;;;;;17.20;4.63;;;;;;;8.83;nan;101601.78;4899340;29;20570;-90
2022/03/12 04:18:49;;;;;;;12.40;4.83;;;;;;;8.96;nan;101620.41;4883966;29;20960;-89
2022/03/12 04:21:18;;;;;;;19.27;5.00;;;;;;;8.97;nan;101620.25;4899214;29;20465;-88
2022/03/12 04:23:49;;;;;;;16.07;5.40;;;;;;;8.94;nan;101617.84;4884719;29;20445;-88
2022/03/12 04:26:17;;;;;;;18.73;5.90;;;;;;;8.95;nan;101605.91;4893738;29;20465;-89
2022/03/12 04:28:46;;;;;;;16.20;5.70;;;;;;;8.99;nan;101612.75;4870740;29;20490;-90
2022/03/12 04:31:14;;;;;;;19.97;6.53;;;;;;;8.95;nan;101605.91;4878368;29;20510;-88
2022/03/12 04:33:43;;;;;;;19.50;5.83;;;;;;;8.91;nan;101599.06;4880764;29;20454;-91
2022/03/12 04:36:13;;;;;;;17.60;4.90;;;;;;;8.84;nan;101592.59;4880124;29;20501;-88
2022/03/12 04:38:41;;;;;;;23.53;5.80;;;;;;;8.89;nan;101598.38;4865337;29;20450;-88
2022/03/12 04:41:13;;;;;;;15.13;4.80;;;;;;;8.93;nan;101605.22;4895517;29;20485;-88
2022/03/12 04:43:42;;;;;;;14.17;4.73;;;;;;;8.87;nan;101586.78;4895101;29;20514;-87
2022/03/12 04:46:10;;;;;;;19.90;5.90;;;;;;;8.91;nan;101593.63;4865453;29;20465;-90
2022/03/12 04:48:38;;;;;;;19.40;5.03;;;;;;;8.87;nan;101589.50;4898548;29;20461;-88
2022/03/12 04:51:06;;;;;;;15.90;4.90;;;;;;;8.87;nan;101586.78;4880227;29;20513;-90
2022/03/12 04:53:35;;;;;;;15.47;5.10;;;;;;;8.86;nan;101600.56;4895399;29;20453;-91
2022/03/12 04:56:05;;;;;;;15.47;5.37;;;;;;;8.82;nan;101600.06;4883998;29;20474;-91
2022/03/12 04:58:33;;;;;;;17.47;5.53;;;;;;;8.82;nan;101589.16;4883889;29;20454;-88
2022/03/12 05:01:03;;;;;;;25.43;6.53;;;;;;;8.81;nan;101592.03;4864782;29;20453;-88
2022/03/12 05:03:31;;;;;;;20.27;7.13;;;;;;;8.82;nan;101588.31;4875750;29;20833;-89
2022/03/12 05:06:02;;;;;;;18.27;6.07;;;;;;;8.79;nan;101594.06;4848315;29;20451;-90
2022/03/12 05:08:36;;;;;;;17.50;4.77;;;;;;;8.71;nan;101586.69;4864460;29;20454;-90
2022/03/12 05:11:04;;;;;;;11.67;4.60;;;;;;;8.71;nan;101605.78;4860370;29;21138;-91
2022/03/12 05:13:33;;;;;;;12.37;3.37;;;;;;;8.62;nan;101595.84;4861772;29;20507;-89
2022/03/12 05:16:05;;;;;;;16.33;4.60;;;;;;;8.61;nan;101597.72;4848003;29;20489;-87
2022/03/12 05:18:34;;;;;;;11.93;3.77;;;;;;;8.56;nan;101596.47;4848815;29;20887;-88
2022/03/12 05:21:06;;;;;;;16.53;3.23;;;;;;;8.51;nan;101579.75;4854013;29;20487;-88
2022/03/12 05:23:34;;;;;;;9.00;3.53;;;;;;;8.51;nan;101574.31;4898246;29;20952;-88
2022/03/12 05:26:02;;;;;;;13.97;4.80;;;;;;;8.56;nan;101596.47;4887905;29;20936;-90
2022/03/12 05:28:32;;;;;;;12.93;4.87;;;;;;;8.59;nan;101593.44;4882500;29;20478;-89
2022/03/12 05:31:04;;;;;;;19.90;5.40;;;;;;;8.56;nan;101589.16;4867499;29;20464;-87
2022/03/12 05:33:36;;;;;;;13.13;3.90;;;;;;;8.57;nan;101600.91;4898244;29;20588;-88
2022/03/12 05:36:05;;;;;;;12.73;3.90;;;;;;;8.47;nan;101600.16;4825227;29;20481;-88
2022/03/12 05:38:38;;;;;;;12.63;4.30;;;;;;;8.43;nan;101602.34;4811772;29;20456;-88
2022/03/12 05:41:10;;;;;;;16.43;3.83;;;;;;;8.41;nan;101598.06;4827130;29;20457;-88
2022/03/12 05:44:04;;;;;;;15.13;3.87;;;;;;;8.43;nan;101599.63;4796239;29;20463;-87
2022/03/12 05:46:32;;;;;;;15.30;4.67;;;;;;;8.46;nan;101612.94;4810844;29;20830;-88
2022/03/12 05:49:00;;;;;;;13.40;4.77;;;;;;;8.49;nan;101600.84;4772156;30;20519;-87
2022/03/12 05:51:30;;;;;;;8.67;3.20;;;;;;;8.51;nan;101590.66;4786809;29;20456;-89
2022/03/12 05:54:00;;;;;;;8.43;3.60;;;;;;;8.54;nan;101607.53;4816153;29;20462;-88
2022/03/12 05:56:28;;;;;;;11.90;3.40;;;;;;;8.44;nan;101600.50;4850031;29;20527;-88
2022/03/12 05:58:57;;;;;;;15.77;3.87;;;;;;;8.49;nan;101611.75;4829880;29;20451;-88
2022/03/12 06:01:25;;;;;;;10.83;4.27;;;;;;;8.45;nan;101604.94;4829614;29;20461;-89
2022/03/12 06:03:55;;;;;;;13.53;3.80;;;;;;;8.43;nan;101610.53;4789834;29;20473;-87
2022/03/12 06:06:24;;;;;;;18.80;4.20;;;;;;;8.41;nan;101611.69;4811212;29;20621;-87
2022/03/12 06:08:54;;;;;;;13.43;3.27;;;;;;;8.42;nan;101618.84;4811132;29;20529;-90
2022/03/12 06:11:24;;;;;;;13.70;3.33;;;;;;;8.34;nan;101611.47;4840698;29;20460;-87
2022/03/12 06:13:54;;;;;;;22.20;4.63;;;;;;;8.43;nan;101609.69;4826339;29;20948;-87
2022/03/12 06:16:28;;;;;;;16.47;4.33;;;;;;;8.46;nan;101615.66;4812711;29;21034;-89
2022/03/12 06:18:57;;;;;;;19.60;5.03;;;;;;;8.41;nan;101609.81;4811487;29;20448;-88
2022/03/12 06:21:25;;;;;;;10.03;3.60;;;;;;;8.39;nan;101613.72;4835855;29;20458;-88
2022/03/12 06:23:54;;;;;;;12.93;4.00;;;;;;;8.47;nan;101625.50;4848296;29;20446;-88
2022/03/12 06:26:23;;;;;;;12.27;4.07;;;;;;;8.47;nan;101630.09;4863915;29;20462;-88
2022/03/12 06:28:52;;;;;;;16.30;4.43;;;;;;;8.42;nan;101629.75;4863895;29;20475;-88
2022/03/12 06:31:22;;;;;;;17.90;4.17;;;;;;;8.47;nan;101641.00;4878326;29;20462;-88
2022/03/12 06:33:55;;;;;;;13.90;4.13;;;;;;;8.46;nan;101639.31;4818815;29;20447;-90
2022/03/12 06:36:24;;;;;;;12.60;3.90;;;;;;;8.47;nan;101636.41;4829266;29;21014;-90
2022/03/12 06:38:52;;;;;;;11.83;4.07;;;;;;;8.48;nan;101645.44;4788827;29;20879;-89
2022/03/12 06:41:23;;;;;;;10.53;4.20;;;;;;;8.46;nan;101642.91;4789626;29;21034;-89
2022/03/12 06:43:52;;;;;;;16.83;4.53;;;;;;;8.41;nan;101633.50;4804243;29;20457;-88
2022/03/12 06:46:23;;;;;;;15.50;4.30;;;;;;;8.46;nan;101647.50;4774803;29;20458;-88
2022/03/12 06:48:51;;;;;;;11.87;4.63;;;;;;;8.47;nan;101654.63;4804093;29;20454;-87
2022/03/12 06:51:19;;;;;;;14.27;4.50;;;;;;;8.46;nan;101661.13;4799887;29;20514;-88
2022/03/12 06:53:48;;;;;;;10.03;2.73;;;;;;;8.38;nan;101672.78;4828958;29;20463;-90
2022/03/12 06:56:18;;;;;;;12.23;3.03;;;;;;;8.25;nan;101673.16;4851028;29;21007;-89
2022/03/12 06:58:46;;;;;;;8.70;3.70;;;;;;;8.26;nan;101680.31;4881522;29;20520;-89
2022/03/12 07:01:16;;;;;;;27.17;4.97;;;;;;;8.23;nan;101664.28;4865955;29;20460;-87
2022/03/12 07:03:45;;;;;;;8.07;3.90;;;;;;;8.34;nan;101670.53;4894208;29;20460;-88
2022/03/12 07:06:16;;;;;;;13.47;4.97;;;;;;;8.35;nan;101672.25;4884681;29;20941;-87
2022/03/12 07:08:44;;;;;;;19.70;4.00;;;;;;;8.35;nan;101661.34;4881061;29;20446;-88
2022/03/12 07:11:13;;;;;;;12.93;3.83;;;;;;;8.43;nan;101675.03;4869518;29;20792;-88
2022/03/12 07:13:42;;;;;;;17.30;4.23;;;;;;;8.49;nan;101677.13;4831188;29;20455;-89
2022/03/12 07:16:11;;;;;;;15.50;4.17;;;;;;;8.55;nan;101662.88;4846162;29;20998;-88
2022/03/12 07:18:40;;;;;;;14.10;3.60;;;;;;;8.60;nan;101671.44;4823896;29;20879;-88
2022/03/12 07:21:09;;;;;;;13.30;4.70;;;;;;;8.62;nan;101672.16;4831864;29;20448;-88
2022/03/12 07:23:37;;;;;;;14.93;4.40;;;;;;;8.64;nan;101670.13;4831001;29;20462;-88
2022/03/12 07:26:05;;;;;;;11.40;3.87;;;;;;;8.73;nan;101679.19;4831334;29;20443;-88
2022/03/12 07:28:33;;;;;;;16.40;4.37;;;;;;;8.77;nan;101667.81;4812289;29;20464;-88
2022/03/12 07:31:01;;;;;;;9.33;4.40;;;;;;;8.84;nan;101673.50;4852717;29;20454;-89
2022/03/12 07:33:30;;;;;;;9.20;4.00;;;;;;;8.90;nan;101684.59;4899124;29;20453;-88
2022/03/12 07:36:00;;;;;;;20.37;5.90;;;;;;;8.94;nan;101675.09;4899673;29;20917;-88
2022/03/12 07:38:29;;;;;;;13.17;4.00;;;;;;;9.02;nan;101687.94;4900008;29;20442;-89
2022/03/12 07:40:58;;;;;;;13.10;4.37;;;;;;;8.96;nan;101678.50;4883947;29;20456;-89
2022/03/12 07:43:26;;;;;;;20.87;11.50;;;;;;;9.08;nan;101689.13;4882683;29;20462;-89
2022/03/12 07:45:54;;;;;;;13.30;4.87;;;;;;;9.14;nan;101691.22;4898588;29;20446;-89
2022/03/12 07:48:25;;;;;;;10.03;3.83;;;;;;;9.17;nan;101691.78;4871216;29;20468;-90
2022/03/12 07:51:06;;;;;;;15.70;6.73;;;;;;;9.25;nan;101699.97;4881449;29;20974;-90
2022/03/12 07:53:34;;;;;;;24.87;12.00;;;;;;;9.23;nan;101674.78;4884591;29;20579;-89
2022/03/12 07:56:04;;;;;;;32.70;14.37;;;;;;;9.43;nan;101691.72;4869319;29;21008;-89
2022/03/12 07:58:35;;;;;;;22.83;8.50;;;;;;;9.46;nan;101707.78;4873609;29;20948;-90
2022/03/12 08:01:10;;;;;;;20.43;6.57;;;;;;;9.52;nan;101707.13;4865957;29;20889;-90
2022/03/12 08:03:40;;;;;;;20.90;5.77;;;;;;;9.63;nan;101725.94;4875848;29;20461;-89
2022/03/12 08:06:09;;;;;;;16.80;6.17;;;;;;;9.70;nan;101721.53;4899729;29;20818;-91
2022/03/12 08:08:38;;;;;;;23.37;5.50;;;;;;;9.76;nan;101714.56;4850686;29;20850;-89
2022/03/12 08:11:28;;;;;;;23.63;6.00;;;;;;;9.82;nan;101705.69;4881188;29;20458;-90
2022/03/12 08:14:03;;;;;;;15.03;5.17;;;;;;;9.96;nan;101709.69;4855428;29;20463;-90
2022/03/12 08:16:34;;;;;;;18.90;5.40;;;;;;;10.03;nan;101711.56;4885620;29;20481;-89
2022/03/12 08:19:06;;;;;;;21.17;6.53;;;;;;;10.12;nan;101712.47;4884039;29;20457;-91
2022/03/12 08:21:35;;;;;;;16.87;6.57;;;;;;;10.21;nan;101692.34;4869524;29;20450;-89
2022/03/12 08:24:12;;;;;;;21.43;6.50;;;;;;;10.36;nan;101712.53;4885002;29;20449;-89
2022/03/12 08:26:43;;;;;;;24.13;6.30;;;;;;;10.45;nan;101697.00;4898764;29;20457;-90
2022/03/12 08:29:14;;;;;;;19.23;6.47;;;;;;;10.68;nan;101713.59;4820167;29;20477;-89
2022/03/12 08:31:43;;;;;;;17.90;5.90;;;;;;;10.73;nan;101713.94;4837908;29;20464;-90
2022/03/12 08:34:11;;;;;;;21.00;5.70;;;;;;;10.87;nan;101731.53;4808105;29;20463;-90
2022/03/12 08:36:42;;;;;;;20.83;7.03;;;;;;;10.90;nan;101718.38;4827805;29;20484;-90
2022/03/12 08:39:15;;;;;;;19.40;4.93;;;;;;;11.00;nan;101724.50;4809591;29;20991;-90
2022/03/12 08:41:46;;;;;;;28.57;6.63;;;;;;;11.04;nan;101722.28;4805977;29;20465;-90
2022/03/12 08:44:17;;;;;;;20.30;5.97;;;;;;;11.13;nan;101713.03;4842232;29;20646;-90
2022/03/12 08:46:47;;;;;;;17.63;5.67;;;;;;;11.25;nan;101724.47;4827504;29;20453;-90
2022/03/12 08:49:16;;;;;;;28.63;6.63;;;;;;;11.32;nan;101704.44;4868831;29;20438;-91
2022/03/12 08:51:46;;;;;;;23.07;5.63;;;;;;;11.51;nan;101705.06;4884033;29;20449;-89
2022/03/12 08:54:19;;;;;;;17.87;5.70;;;;;;;11.65;nan;101707.06;4868581;29;20458;-90
2022/03/12 08:56:48;;;;;;;26.70;7.73;;;;;;;11.78;nan;101690.94;4911021;29;20505;-90
2022/03/12 08:59:19;;;;;;;28.60;8.73;;;;;;;11.92;nan;101695.69;4872680;29;20464;-91
2022/03/12 09:01:48;;;;;;;28.93;8.80;;;;;;;11.96;nan;101691.53;4879761;29;20481;-89
2022/03/12 09:04:17;;;;;;;20.00;6.97;;;;;;;12.07;nan;101687.53;4882139;29;20469;-89
2022/03/12 09:06:50;;;;;;;33.93;6.93;;;;;;;12.17;nan;101701.84;4897602;29;20453;-90
2022/03/12 09:09:20;;;;;;;29.20;10.17;;;;;;;12.24;nan;101697.38;4898912;29;20873;-91
2022/03/12 09:11:49;;;;;;;27.37;9.57;;;;;;;12.34;nan;101706.19;4867794;29;20463;-91
2022/03/12 09:14:24;;;;;;;30.17;8.00;;;;;;;12.41;nan;101688.00;4872819;29;20465;-91
2022/03/12 09:16:53;;;;;;;30.77;6.27;;;;;;;12.60;nan;101694.00;4891237;29;21010;-91
2022/03/12 09:19:23;;;;;;;32.50;9.30;;;;;;;12.72;nan;101689.78;4852303;29;20450;-91
2022/03/12 09:21:56;;;;;;;35.70;12.43;;;;;;;12.93;nan;101698.16;4882703;29;20517;-91
2022/03/12 09:24:24;;;;;;;46.93;15.70;;;;;;;13.19;nan;101705.16;4881995;29;20457;-93
2022/03/12 09:26:52;;;;;;;24.00;9.30;;;;;;;13.27;nan;101688.63;4881147;29;20987;-91
2022/03/12 09:29:31;;;;;;;25.17;7.83;;;;;;;13.51;nan;101704.78;4862022;29;20486;-91
2022/03/12 09:32:02;;;;;;;27.97;7.27;;;;;;;13.57;nan;101693.06;4883863;29;20462;-91
2022/03/12 09:34:31;;;;;;;27.30;6.67;;;;;;;13.87;nan;101715.00;4883680;29;20449;-91
2022/03/12 09:37:00;;;;;;;28.37;6.00;;;;;;;13.92;nan;101696.03;4867375;29;20485;-92
2022/03/12 09:39:27;;;;;;;20.40;5.10;;;;;;;14.08;nan;101693.06;4898262;29;20453;-87
2022/03/12 09:41:56;;;;;;;28.50;5.90;;;;;;;14.33;nan;101704.56;4882066;29;20508;-87
2022/03/12 09:44:24;;;;;;;30.20;7.33;;;;;;;14.43;nan;101700.47;4869498;29;20466;-89
2022/03/12 09:46:58;;;;;;;31.63;8.50;;;;;;;14.69;nan;101701.78;4882412;29;20461;-89
2022/03/12 09:49:27;;;;;;;46.77;10.10;;;;;;;14.87;nan;101702.16;4822089;29;20459;-93
2022/03/12 09:51:57;;;;;;;36.23;9.40;;;;;;;14.96;nan;101694.63;4826421;29;20464;-92
2022/03/12 09:54:29;;;;;;;31.27;7.40;;;;;;;15.13;nan;101691.38;4841787;29;21015;-92
2022/03/12 09:56:58;;;;;;;43.53;9.03;;;;;;;15.42;nan;101697.69;4858086;29;20487;-88
2022/03/12 09:59:27;;;;;;;34.07;8.63;;;;;;;15.60;nan;101686.16;4842896;29;20463;-89
2022/03/12 10:01:55;;;;;;;31.70;10.73;;;;;;;15.82;nan;101688.63;4839649;29;20455;-91
2022/03/12 10:04:23;;;;;;;22.53;6.80;;;;;;;15.99;nan;101691.00;4829311;29;20495;-89
2022/03/12 10:06:53;;;;;;;25.60;6.10;;;;;;;16.08;nan;101689.78;4846598;29;20453;-88
2022/03/12 10:09:22;;;;;;;23.40;6.70;;;;;;;16.21;nan;101700.84;4898080;29;20831;-88
2022/03/12 10:11:51;;;;;;;16.23;5.83;;;;;;;16.35;nan;101696.25;4896489;29;20450;-89
2022/03/12 10:14:24;;;;;;;16.17;4.50;;;;;;;16.42;nan;101692.41;4892444;29;20450;-89
2022/03/12 10:16:53;;;;;;;16.23;3.80;;;;;;;16.46;nan;101687.34;4868780;29;20914;-84
2022/03/12 10:19:22;;;;;;;17.70;3.43;;;;;;;16.53;nan;101689.06;4878913;29;20451;-88
2022/03/12 10:21:52;;;;;;;13.13;3.17;;;;;;;16.57;nan;101684.78;4878656;29;20461;-87
2022/03/12 10:24:20;;;;;;;8.93;3.13;;;;;;;16.53;nan;101667.00;4894060;29;20469;-87
2022/03/12 10:26:48;;;;;;;13.30;3.40;;;;;;;16.58;nan;101674.59;4880424;29;20530;-87
2022/03/12 10:29:16;;;;;;;22.10;3.40;;;;;;;16.52;nan;101670.81;4892577;29;20525;-87
2022/03/12 10:31:44;;;;;;;13.53;3.03;;;;;;;16.49;nan;101670.38;4863169;29;20454;-87
2022/03/12 10:34:25;;;;;;;21.03;4.30;;;;;;;16.47;nan;101667.81;4872319;29;20457;-87
2022/03/12 10:36:55;;;;;;;16.83;4.27;;;;;;;16.43;nan;101651.88;4865947;29;20992;-88
2022/03/12 10:39:41;;;;;;;17.30;4.70;;;;;;;16.47;nan;101659.53;4880665;29;20962;-87
2022/03/12 10:42:10;;;;;;;18.10;5.20;;;;;;;16.43;nan;101655.50;4893209;29;20465;-88
2022/03/12 10:44:39;;;;;;;19.17;4.80;;;;;;;16.38;nan;101658.03;4878114;29;20434;-88
2022/03/12 10:47:23;;;;;;;20.03;4.90;;;;;;;16.27;nan;101647.63;4858794;29;20971;-87
2022/03/12 10:49:59;;;;;;;13.80;4.40;;;;;;;16.20;nan;101652.25;4863288;29;20479;-88
2022/03/12 10:52:30;;;;;;;19.10;4.70;;;;;;;16.18;nan;101651.63;4863591;29;20450;-87
2022/03/12 10:58:44;;;;;;;22.70;6.67;;;;;;;16.22;nan;101647.38;4889000;29;20445;-94
2022/03/12 11:01:46;;;;;;;29.33;12.60;;;;;;;16.36;nan;101662.03;4870448;29;20926;-93
2022/03/12 11:04:18;;;;;;;15.27;2.80;;;;;;;16.44;nan;101661.88;4880092;29;20457;-94
2022/03/12 11:06:46;;;;;;;14.63;3.50;;;;;;;16.54;nan;101674.22;4861956;29;20544;-94
2022/03/12 11:09:31;;;;;;;12.47;2.10;;;;;;;16.61;nan;101670.59;4883088;29;20506;-90
2022/03/12 11:12:00;;;;;;;9.20;2.53;;;;;;;16.70;nan;101672.97;4882470;29;20465;-91
2022/03/12 11:14:31;;;;;;;11.20;3.10;;;;;;;16.81;nan;101669.56;4882538;29;20461;-92
2022/03/12 11:17:03;;;;;;;10.83;2.03;;;;;;;16.86;nan;101655.13;4881947;29;20481;-91
2022/03/12 11:19:45;;;;;;;8.77;1.70;;;;;;;17.07;nan;101667.88;4873573;29;20534;-89
2022/03/12 11:22:14;;;;;;;11.23;2.40;;;;;;;17.24;nan;101669.97;4870907;29;20460;-90
2022/03/12 11:24:49;;;;;;;18.47;2.87;;;;;;;17.37;nan;101668.22;4882258;29;20461;-86
2022/03/12 11:27:35;;;;;;;23.63;4.13;;;;;;;17.55;nan;101662.88;4880967;29;20488;-92
2022/03/12 11:30:08;;;;;;;18.03;2.90;;;;;;;17.71;nan;101654.13;4880758;29;20457;-91
2022/03/12 11:32:45;;;;;;;17.60;2.37;;;;;;;17.78;nan;101654.94;4865717;29;20458;-95
2022/03/12 11:35:17;;;;;;;19.67;3.17;;;;;;;17.88;nan;101660.88;4867099;29;20546;-91
2022/03/12 11:37:46;;;;;;;28.40;5.13;;;;;;;18.13;nan;101657.31;4866041;29;20482;-92
2022/03/12 11:40:19;;;;;;;10.40;2.47;;;;;;;18.34;nan;101656.13;4865784;29;20460;-91
2022/03/12 11:42:48;;;;;;;20.40;3.77;;;;;;;18.40;nan;101645.03;4868165;29;20442;-92
2022/03/12 11:45:24;;;;;;;14.70;3.40;;;;;;;18.46;nan;101649.69;4882409;29;20504;-92
2022/03/12 11:47:53;;;;;;;8.70;2.20;;;;;;;18.42;nan;101655.88;4898917;29;20448;-92
2022/03/12 11:50:22;;;;;;;12.33;2.23;;;;;;;18.29;nan;101651.25;4879311;29;20792;-92
2022/03/12 11:52:54;;;;;;;19.87;3.03;;;;;;;18.19;nan;101646.22;4865017;29;20461;-92
2022/03/12 11:55:27;;;;;;;14.33;3.17;;;;;;;18.13;nan;101646.25;4873569;29;20456;-90
2022/03/12 11:58:08;;;;;;;19.97;2.90;;;;;;;18.15;nan;101638.59;4868772;29;20997;-94
2022/03/12 12:00:37;;;;;;;13.80;2.43;;;;;;;18.03;nan;101593.34;4870232;29;20525;-88